20:48
Airports
History
Links
Donate
Help keep this website running!
PayPal
Bitcoin
This page is community maintained. The information is intended for PC simulator navigation or reference.
Always use approved charts for navigation.
74J
Acres of Diamonds Airpark
Acres of Diamonds Airpark (74J)
Greenwood, Florida, United States (32443)
4
Lat/Lng:30° 53' 10.68" N / 85° 9' 49.74" W
30.886299 / -85.163818
Elevation:134'ft / 41mMSL
ID / ICAO:74J
Runways:1
Longest:18-36
Grass 917m / 3,010ft
Nearby Weather19:53 GMT 2017-09-19
Nearby weather at KMAI, Marianna Muni located 3.5 nautical miles from 74J
Altimeter: 29.91
Visibility: 10.0 statute miles
Wind: 4 knots (from VRB°)
Temp: 33°c / 91°f
Humidity: 49.4%

METAR: KMAI 191953Z AUTO VRB04KT 10SM CLR 33/21 A2991 RMK AO2 SLP128 T03330206

(Powered by phpweather)
Nearby VORs <50NM
Nearby NDBs
Runway 18 / 36
Dimensions:917.3 x 35.1m 3010' x 115'ft
Surface:Grass
Runway 18 [A]Runway 36 [B]
Heading:179°TH 359°TH
Lat:
Lng:
30° 53' 25.49"N
85° 9' 50.05"W
30° 52' 55.87"N
85° 9' 49.44"W
User Notes and Comments
30° 53' 10.68" N / 85° 9' 49.74" W
Distance To
Airport ID:
Nearby Airports
(R) Chipola Airpark 0.3 NM
5FL8 WNW 300°
(U) Marianna Muni 3.5 NM
KMAI ( WX ) SSW 197°
(R) North American Farms 7.8 NM
56FD NE 45°
(R) Lawrence 14.4 NM
1FD0 SE 144°
4 Cottondale 14.6 NM
22J WSW 240°
4 Watson 15.7 NM
27FL WNW 286°
4 Lands Field 15.9 NM
21FD SSW 213°
VFR Chart
Flight Planning at SkyVector.com